.
WxDataArchive / Data Records for 2014-10-25
2014-10-24 October 2014 2014-10-26

Data Records for Saturday, 25 October 2014

Time	Temp	Chill	HIndex	Humid	Dewpt	 Wind 	HiWind	WindDir	Rain 	Barom
-----	----	-----	------	-----	-----	------	------	-------	-----	-----
00:00	51.0	51.0	51.0	93	49.0	0	0	---	0.00	29.955 
00:05	51.1	51.1	51.1	93	49.1	0	2	292	0.00	29.955 
00:10	51.3	51.3	51.3	93	49.3	0	0	---	0.00	29.955 
00:15	51.3	51.3	51.3	93	49.3	0	1	292	0.00	29.952 
00:20	51.3	51.3	51.3	92	49.1	0	0	---	0.00	29.952 
00:25	51.3	51.3	51.3	92	49.1	0	0	---	0.00	29.952 
00:30	51.4	51.4	51.4	92	49.2	0	0	---	0.00	29.950 
00:35	51.4	51.4	51.4	92	49.2	0	0	---	0.00	29.950 
00:40	51.6	51.6	51.6	92	49.4	0	1	270	0.00	29.950 
00:45	51.6	51.6	51.6	92	49.4	0	1	292	0.00	29.942 
00:50	51.6	51.6	51.6	92	49.4	0	0	---	0.00	29.942 
00:55	51.4	51.4	51.4	92	49.2	0	0	---	0.00	29.942 
01:00	51.4	51.4	51.4	92	49.2	0	0	---	0.00	29.936 
01:05	51.4	51.4	51.4	92	49.2	0	0	---	0.00	29.936 
01:10	51.4	51.4	51.4	92	49.2	0	1	270	0.00	29.936 
01:15	51.4	51.4	51.4	92	49.2	0	0	---	0.00	29.933 
01:20	51.4	51.4	51.4	92	49.2	0	1	292	0.00	29.933 
01:25	51.4	51.4	51.4	92	49.2	0	1	292	0.00	29.933 
01:30	51.4	51.4	51.4	92	49.2	0	0	---	0.00	29.936 
01:35	51.4	51.4	51.4	92	49.2	0	0	---	0.00	29.936 
01:40	51.4	51.4	51.4	92	49.2	0	0	---	0.00	29.936 
01:45	51.3	51.3	51.3	92	49.1	0	0	---	0.00	29.937 
01:50	51.3	51.3	51.3	92	49.1	0	0	---	0.00	29.937 
01:55	51.3	51.3	51.3	92	49.1	0	0	---	0.00	29.937 
02:00	51.3	51.3	51.3	92	49.1	0	1	270	0.00	29.934 
02:05	51.3	51.3	51.3	92	49.1	0	1	270	0.00	29.934 
02:10	51.4	51.4	51.4	92	49.2	0	0	---	0.00	29.934 
02:15	51.6	51.6	51.6	92	49.4	0	0	---	0.00	29.931 
02:20	51.6	51.6	51.6	92	49.4	0	0	---	0.00	29.931 
02:25	51.6	51.6	51.6	92	49.4	0	0	---	0.00	29.931 
02:30	51.7	51.7	51.7	92	49.5	0	1	292	0.00	29.927 
02:35	51.9	51.9	51.9	92	49.6	0	1	270	0.00	29.927 
02:40	51.9	51.9	51.9	92	49.6	0	1	270	0.00	29.927 
02:45	51.9	51.9	51.9	92	49.6	0	1	270	0.00	29.920 
02:50	51.9	51.9	51.9	91	49.4	0	0	---	0.00	29.920 
02:55	51.9	51.9	51.9	91	49.4	0	1	292	0.00	29.920 
03:00	51.9	51.9	51.9	91	49.4	0	1	270	0.00	29.929 
03:05	51.9	51.9	51.9	91	49.4	0	0	---	0.00	29.929 
03:10	51.9	51.9	51.9	91	49.4	0	0	---	0.00	29.929 
03:15	52.0	52.0	52.0	91	49.5	0	0	---	0.00	29.930 
03:20	52.2	52.2	52.2	91	49.7	0	0	---	0.00	29.930 
03:25	52.3	52.3	52.3	91	49.8	0	0	---	0.00	29.930 
03:30	52.5	52.5	52.5	91	49.9	0	1	270	0.00	29.922 
03:35	52.5	52.5	52.5	91	49.9	0	1	292	0.00	29.922 
03:40	52.6	52.6	52.6	91	50.0	0	0	---	0.00	29.922 
03:45	52.6	52.6	52.6	91	50.0	0	1	270	0.00	29.912 
03:50	52.8	52.8	52.8	90	49.9	0	1	270	0.00	29.912 
03:55	52.8	52.8	52.8	90	49.9	0	1	270	0.00	29.912 
04:00	52.9	52.9	52.9	90	50.0	0	1	292	0.00	29.899 
04:05	52.9	52.9	52.9	90	50.0	0	0	---	0.00	29.899 
04:10	53.1	53.1	53.1	89	49.9	0	1	292	0.00	29.899 
04:15	53.1	53.1	53.1	89	49.9	0	1	270	0.00	29.895 
04:20	53.1	53.1	53.1	89	49.9	0	0	---	0.00	29.895 
04:25	52.9	52.9	52.9	89	49.7	0	0	---	0.00	29.895 
04:30	52.9	52.9	52.9	89	49.7	0	0	---	0.00	29.891 
04:35	52.9	52.9	52.9	89	49.7	0	0	---	0.00	29.891 
04:40	52.9	52.9	52.9	89	49.7	0	0	---	0.00	29.891 
04:45	53.1	53.1	53.1	89	49.9	0	1	292	0.00	29.889 
04:50	53.1	53.1	53.1	88	49.6	0	0	---	0.00	29.889 
04:55	53.1	53.1	53.1	89	49.9	0	1	270	0.00	29.889 
05:00	53.1	53.1	53.1	89	49.9	0	0	---	0.00	29.886 
05:05	53.2	53.2	53.2	89	50.0	0	0	---	0.00	29.886 
05:10	53.2	53.2	53.2	89	50.0	0	0	---	0.00	29.886 
05:15	53.2	53.2	53.2	89	50.0	0	0	---	0.00	29.878 
05:20	53.3	53.3	53.3	89	50.1	0	0	---	0.00	29.878 
05:25	53.3	53.3	53.3	90	50.4	0	1	292	0.00	29.878 
05:30	53.5	53.5	53.5	90	50.6	0	1	292	0.00	29.878 
05:35	53.6	53.6	53.6	90	50.7	0	1	292	0.00	29.878 
05:40	53.6	53.6	53.6	90	50.7	0	1	270	0.00	29.878 
05:45	53.8	53.8	53.8	90	50.9	0	1	292	0.00	29.870 
05:50	53.8	53.8	53.8	90	50.9	0	1	292	0.00	29.870 
05:55	53.9	53.9	53.9	90	51.0	0	1	292	0.00	29.870 
06:00	53.9	53.9	53.9	90	51.0	0	1	292	0.00	29.870 
06:05	54.1	54.1	54.1	90	51.2	0	1	292	0.00	29.870 
06:10	54.2	54.2	54.2	90	51.3	0	1	292	0.00	29.870 
06:15	54.2	54.2	54.2	90	51.3	0	1	292	0.00	29.873 
06:20	54.4	54.4	54.4	90	51.5	0	1	270	0.00	29.873 
06:25	54.5	54.5	54.5	90	51.6	0	0	---	0.00	29.873 
06:30	54.5	54.5	54.5	90	51.6	0	1	270	0.00	29.882 
06:35	54.7	54.7	54.7	89	51.5	0	1	292	0.00	29.882 
06:40	54.7	54.7	54.7	89	51.5	0	1	292	0.00	29.882 
06:45	54.7	54.7	54.7	89	51.5	0	1	292	0.00	29.885 
06:50	54.7	54.7	54.7	89	51.5	0	1	270	0.00	29.885 
06:55	54.7	54.7	54.7	89	51.5	0	1	292	0.00	29.885 
07:00	54.7	54.7	54.7	89	51.5	0	1	292	0.00	29.885 
07:05	54.8	54.8	54.8	89	51.6	0	2	270	0.00	29.885 
07:10	55.0	55.0	55.0	88	51.5	0	3	292	0.00	29.885 
07:15	55.1	55.1	55.1	88	51.6	0	1	270	0.00	29.889 
07:20	55.3	55.3	55.3	88	51.8	0	1	292	0.00	29.889 
07:25	55.3	55.3	55.3	87	51.5	0	2	292	0.00	29.889 
07:30	55.4	55.4	55.4	87	51.6	0	2	292	0.00	29.887 
07:35	55.4	55.4	55.4	87	51.6	0	1	292	0.00	29.887 
07:40	55.3	55.3	55.3	87	51.5	0	1	292	0.00	29.887 
07:45	55.3	55.3	55.3	86	51.2	0	2	292	0.00	29.888 
07:50	55.3	55.3	55.3	86	51.2	0	1	292	0.00	29.888 
07:55	55.1	55.1	55.1	87	51.3	0	1	292	0.00	29.888 
08:00	55.0	55.0	55.0	87	51.2	0	1	292	0.00	29.887 
08:05	54.8	54.8	54.8	87	51.0	0	1	292	0.00	29.887 
08:10	54.7	54.7	54.7	87	50.9	0	0	---	0.00	29.887 
08:15	54.5	54.5	54.5	87	50.7	0	0	---	0.00	29.890 
08:20	54.4	54.4	54.4	88	50.9	0	1	292	0.00	29.890 
08:25	54.4	54.4	54.4	88	50.9	0	1	292	0.00	29.890 
08:30	54.2	54.2	54.2	88	50.7	0	1	292	0.00	29.884 
08:35	54.2	54.2	54.2	88	50.7	0	1	292	0.00	29.884 
08:40	54.2	54.2	54.2	88	50.7	0	1	292	0.00	29.884 
08:45	54.2	54.2	54.2	89	51.0	0	1	270	0.00	29.883 
08:50	54.2	54.2	54.2	89	51.0	0	0	---	0.00	29.883 
08:55	54.4	54.4	54.4	89	51.2	0	0	---	0.00	29.883 
09:00	54.4	54.4	54.4	89	51.2	0	2	292	0.00	29.881 
09:05	54.5	54.5	54.5	89	51.3	0	1	292	0.00	29.881 
09:10	54.7	54.7	54.7	89	51.5	0	2	292	0.00	29.881 
09:15	54.8	54.8	54.8	89	51.6	0	1	292	0.00	29.889 
09:20	55.0	55.0	55.0	89	51.8	0	2	292	0.00	29.889 
09:25	55.1	55.1	55.1	89	51.9	0	2	292	0.00	29.889 
09:30	55.3	55.3	55.3	88	51.8	0	2	292	0.00	29.891 
09:35	55.4	55.4	55.4	88	51.9	0	1	292	0.00	29.891 
09:40	55.7	55.7	55.7	88	52.2	0	3	292	0.00	29.891 
09:45	56.0	56.0	56.0	88	52.5	0	2	292	0.00	29.885 
09:50	56.5	56.5	56.5	87	52.7	1	3	292	0.00	29.885 
09:55	56.7	56.7	56.7	87	52.9	1	3	292	0.00	29.885 
10:00	57.2	57.2	57.2	86	53.0	1	4	292	0.00	29.884 
10:05	57.5	57.5	57.5	84	52.7	1	4	292	0.00	29.884 
10:10	57.8	57.8	57.8	84	53.0	1	4	292	0.00	29.884 
10:15	58.0	58.0	58.0	83	52.9	1	4	292	0.00	29.873 
10:20	58.3	58.3	58.3	83	53.2	1	4	292	0.00	29.873 
10:25	58.4	58.4	58.4	82	52.9	0	3	292	0.00	29.873 
10:30	58.9	58.9	58.9	82	53.4	1	4	292	0.00	29.876 
10:35	59.2	59.2	59.2	81	53.4	1	4	292	0.00	29.876 
10:40	59.5	59.5	59.5	81	53.7	1	5	292	0.00	29.876 
10:45	59.8	59.8	59.8	80	53.6	1	3	292	0.00	29.870 
10:50	59.9	59.9	59.9	80	53.7	1	5	292	0.00	29.870 
10:55	60.1	60.1	60.1	80	53.9	2	5	292	0.00	29.870 
11:00	60.2	60.2	60.2	80	54.0	3	6	292	0.00	29.870 
11:05	60.2	60.2	60.2	79	53.7	3	6	292	0.00	29.870 
11:10	60.2	60.2	60.2	79	53.7	3	5	270	0.00	29.870 
11:15	60.7	60.7	60.7	80	54.5	2	5	292	0.00	29.867 
11:20	61.0	61.0	61.0	79	54.4	2	5	292	0.00	29.867 
11:25	61.2	61.2	61.2	78	54.3	3	6	292	0.00	29.867 
11:30	61.5	61.5	61.5	78	54.6	3	5	270	0.00	29.868 
11:35	61.6	61.6	61.6	78	54.7	3	5	270	0.00	29.868 
11:40	62.1	62.1	62.1	77	54.8	2	5	270	0.00	29.868 
11:45	62.4	62.4	62.4	77	55.1	1	6	270	0.00	29.865 
11:50	62.7	62.7	62.7	76	55.0	1	5	270	0.00	29.865 
11:55	63.1	63.1	63.1	74	54.7	2	6	270	0.00	29.865 
12:00	63.2	63.2	63.2	74	54.8	2	5	270	0.00	29.852 
12:05	63.5	63.5	63.5	74	55.1	2	4	270	0.00	29.852 
12:10	63.7	63.7	63.7	73	54.9	2	4	270	0.00	29.852 
12:15	64.0	64.0	64.0	72	54.8	2	6	270	0.00	29.851 
12:20	64.2	64.2	64.2	72	55.0	3	5	292	0.00	29.851 
12:25	64.5	64.5	64.5	71	54.9	3	6	292	0.00	29.851 
12:30	64.7	64.7	64.7	71	55.1	2	5	270	0.00	29.851 
12:35	65.0	65.0	65.0	69	54.6	2	6	270	0.00	29.851 
12:40	65.2	65.2	65.2	70	55.2	2	4	292	0.00	29.851 
12:45	65.6	65.6	65.6	70	55.5	2	4	270	0.00	29.860 
12:50	66.0	66.0	66.0	68	55.1	2	6	270	0.00	29.860 
12:55	66.0	66.0	66.0	68	55.1	3	6	270	0.00	29.860 
13:00	66.1	66.1	66.1	67	54.8	3	6	292	0.00	29.857 
13:05	66.3	66.3	66.3	66	54.6	3	6	270	0.00	29.857 
13:10	66.6	66.6	66.6	65	54.5	3	7	270	0.00	29.857 
13:15	66.8	66.8	66.8	65	54.6	3	5	292	0.00	29.857 
13:20	67.3	67.3	67.3	64	54.7	2	4	292	0.00	29.857 
13:25	67.6	67.6	67.6	62	54.1	3	7	292	0.00	29.857 
13:30	67.6	67.6	67.6	62	54.1	3	6	270	0.00	29.853 
13:35	67.8	67.8	67.8	62	54.3	3	7	270	0.00	29.853 
13:40	67.8	67.8	67.8	62	54.3	2	4	292	0.00	29.853 
13:45	67.9	67.9	67.9	60	53.5	4	7	270	0.00	29.851 
13:50	67.8	67.8	67.8	60	53.4	3	7	270	0.00	29.851 
13:55	67.6	67.6	67.6	62	54.1	3	6	315	0.00	29.851 
14:00	67.6	67.6	67.6	60	53.2	3	9	338	0.00	29.848 
14:05	67.8	67.8	67.8	61	53.9	3	7	292	0.00	29.848 
14:10	67.6	67.6	67.6	60	53.2	4	9	270	0.00	29.848 
14:15	67.8	67.8	67.8	62	54.3	2	5	338	0.00	29.845 
14:20	67.6	67.6	67.6	61	53.7	3	9	315	0.00	29.845 
14:25	67.4	67.4	67.4	62	53.9	3	6	338	0.00	29.845 
14:30	67.1	67.1	67.1	62	53.6	3	5	270	0.00	29.843 
14:35	67.1	67.1	67.1	61	53.2	2	7	270	0.00	29.843 
14:40	67.1	67.1	67.1	57	51.3	3	5	270	0.00	29.843 
14:45	67.1	67.1	67.1	54	49.9	3	7	270	0.00	29.845 
14:50	66.8	66.8	66.8	54	49.6	3	7	270	0.00	29.845 
14:55	66.6	66.6	66.6	55	49.9	3	7	270	0.00	29.845 
15:00	66.8	66.8	66.8	54	49.6	3	9	270	0.00	29.845 
15:05	66.8	66.8	66.8	54	49.6	3	6	315	0.00	29.845 
15:10	66.9	66.9	66.9	54	49.7	3	6	270	0.00	29.845 
15:15	66.9	66.9	66.9	52	48.7	4	9	315	0.00	29.838 
15:20	67.3	67.3	67.3	51	48.5	3	7	292	0.00	29.838 
15:25	67.3	67.3	67.3	51	48.5	3	6	292	0.00	29.838 
15:30	67.4	67.4	67.4	49	47.6	2	6	270	0.00	29.831 
15:35	67.4	67.4	67.4	47	46.5	4	6	270	0.00	29.831 
15:40	67.4	67.4	67.4	48	47.0	4	7	270	0.00	29.831 
15:45	67.6	67.6	67.6	46	46.1	3	9	270	0.00	29.830 
15:50	67.8	67.8	67.8	47	46.8	3	8	270	0.00	29.830 
15:55	68.1	68.1	68.1	49	48.2	2	5	270	0.00	29.830 
16:00	68.4	68.4	68.4	47	47.4	2	5	270	0.00	29.825 
16:05	68.4	68.4	68.4	47	47.4	2	7	270	0.00	29.825 
16:10	68.3	68.3	68.3	46	46.7	3	7	270	0.00	29.825 
16:15	68.1	68.1	68.1	48	47.7	2	5	270	0.00	29.824 
16:20	68.3	68.3	68.3	49	48.4	1	3	270	0.00	29.824 
16:25	68.3	68.3	68.3	45	46.1	3	7	270	0.00	29.824 
16:30	68.4	68.4	68.4	48	47.9	1	5	270	0.00	29.822 
16:35	68.4	68.4	68.4	39	42.5	2	7	270	0.00	29.822 
16:40	68.6	68.6	68.6	30	35.9	3	6	270	0.00	29.822 
16:45	68.9	68.9	68.9	31	37.0	3	9	270	0.00	29.823 
16:50	68.9	68.9	68.9	31	37.0	4	7	292	0.00	29.823 
16:55	68.9	68.9	68.9	31	37.0	3	6	270	0.00	29.823 
17:00	69.1	69.1	69.1	28	34.6	3	7	292	0.00	29.825 
17:05	69.1	69.1	69.1	29	35.5	2	7	270	0.00	29.825 
17:10	68.9	68.9	68.9	27	33.5	3	6	270	0.00	29.825 
17:15	68.8	68.8	68.8	26	32.5	5	11	292	0.00	29.830 
17:20	68.8	68.8	68.8	26	32.5	4	8	270	0.00	29.830 
17:25	68.6	68.6	68.6	26	32.3	3	6	270	0.00	29.830 
17:30	68.4	68.4	68.4	27	33.1	1	4	270	0.00	29.829 
17:35	68.4	68.4	68.4	26	32.2	3	10	270	0.00	29.829 
17:40	68.3	68.3	68.3	26	32.1	3	7	270	0.00	29.829 
17:45	68.1	68.1	68.1	25	30.9	3	6	270	0.00	29.829 
17:50	68.1	68.1	68.1	24	29.9	3	7	315	0.00	29.829 
17:55	67.8	67.8	67.8	25	30.7	2	4	270	0.00	29.829 
18:00	67.4	67.4	67.4	25	30.4	2	5	315	0.00	29.828 
18:05	67.1	67.1	67.1	25	30.1	2	5	315	0.00	29.828 
18:10	66.9	66.9	66.9	25	29.9	2	6	292	0.00	29.828 
18:15	66.6	66.6	66.6	25	29.7	2	9	270	0.00	29.830 
18:20	66.3	66.3	66.3	25	29.4	2	5	270	0.00	29.830 
18:25	66.0	66.0	66.0	26	30.1	1	4	292	0.00	29.830 
18:30	65.6	65.6	65.6	27	30.7	1	3	270	0.00	29.832 
18:35	65.3	65.3	65.3	27	30.5	1	2	270	0.00	29.832 
18:40	65.0	65.0	65.0	28	31.1	1	3	292	0.00	29.832 
18:45	64.5	64.5	64.5	28	30.7	0	1	292	0.00	29.832 
18:50	64.0	64.0	64.0	29	31.1	0	1	292	0.00	29.832 
18:55	63.5	63.5	63.5	30	31.5	0	0	---	0.00	29.832 
19:00	63.1	63.1	63.1	31	32.0	0	0	---	0.00	29.833 
19:05	62.4	62.4	62.4	32	32.2	0	0	---	0.00	29.833 
19:10	61.8	61.8	61.8	33	32.4	0	0	---	0.00	29.833 
19:15	61.2	61.2	61.2	34	32.6	0	0	---	0.00	29.831 
19:20	60.5	60.5	60.5	35	32.7	0	0	---	0.00	29.831 
19:25	59.9	59.9	59.9	36	32.9	0	0	---	0.00	29.831 
19:30	59.6	59.6	59.6	36	32.6	0	0	---	0.00	29.832 
19:35	59.2	59.2	59.2	37	32.9	0	0	---	0.00	29.832 
19:40	58.7	58.7	58.7	38	33.2	0	0	---	0.00	29.832 
19:45	58.4	58.4	58.4	39	33.5	0	0	---	0.00	29.837 
19:50	58.0	58.0	58.0	40	33.8	0	0	---	0.00	29.837 
19:55	57.6	57.6	57.6	41	34.1	0	0	---	0.00	29.837 
20:00	57.3	57.3	57.3	41	33.8	0	0	---	0.00	29.837 
20:05	57.2	57.2	57.2	42	34.3	0	0	---	0.00	29.837 
20:10	57.0	57.0	57.0	43	34.7	0	0	---	0.00	29.837 
20:15	57.0	57.0	57.0	43	34.7	0	0	---	0.00	29.840 
20:20	56.9	56.9	56.9	44	35.2	0	0	---	0.00	29.840 
20:25	56.7	56.7	56.7	45	35.6	0	0	---	0.00	29.840 
20:30	56.6	56.6	56.6	45	35.5	0	0	---	0.00	29.841 
20:35	56.5	56.5	56.5	46	36.0	0	0	---	0.00	29.841 
20:40	56.2	56.2	56.2	46	35.7	0	0	---	0.00	29.841 
20:45	56.0	56.0	56.0	47	36.1	0	0	---	0.00	29.848 
20:50	55.7	55.7	55.7	49	36.8	0	0	---	0.00	29.848 
20:55	55.4	55.4	55.4	49	36.6	0	0	---	0.00	29.848 
21:00	55.1	55.1	55.1	50	36.8	0	0	---	0.00	29.851 
21:05	54.7	54.7	54.7	52	37.4	0	0	---	0.00	29.851 
21:10	54.4	54.4	54.4	53	37.6	0	0	---	0.00	29.851 
21:15	53.9	53.9	53.9	54	37.6	0	0	---	0.00	29.851 
21:20	53.3	53.3	53.3	55	37.5	0	0	---	0.00	29.851 
21:25	52.9	52.9	52.9	56	37.6	0	0	---	0.00	29.851 
21:30	52.5	52.5	52.5	58	38.2	0	0	---	0.00	29.854 
21:35	52.2	52.2	52.2	58	37.9	0	0	---	0.00	29.854 
21:40	51.9	51.9	51.9	58	37.6	0	0	---	0.00	29.854 
21:45	51.7	51.7	51.7	59	37.8	0	0	---	0.00	29.861 
21:50	51.4	51.4	51.4	60	38.0	0	0	---	0.00	29.861 
21:55	51.1	51.1	51.1	61	38.1	0	0	---	0.00	29.861 
22:00	50.8	50.8	50.8	62	38.3	0	0	---	0.00	29.866 
22:05	50.5	50.5	50.5	62	38.0	0	0	---	0.00	29.866 
22:10	50.2	50.2	50.2	62	37.7	0	0	---	0.00	29.866 
22:15	50.1	50.1	50.1	63	38.0	0	0	---	0.00	29.869 
22:20	49.9	49.9	49.9	63	37.8	0	0	---	0.00	29.869 
22:25	50.1	50.1	50.1	62	37.6	0	1	292	0.00	29.869 
22:30	51.6	51.6	51.6	59	37.7	0	1	292	0.00	29.871 
22:35	52.8	52.8	52.8	56	37.5	0	1	292	0.00	29.871 
22:40	53.6	53.6	53.6	53	36.9	0	1	292	0.00	29.871 
22:45	54.2	54.2	54.2	52	37.0	0	1	292	0.00	29.868 
22:50	54.7	54.7	54.7	51	36.9	0	1	292	0.00	29.868 
22:55	54.8	54.8	54.8	50	36.5	0	1	292	0.00	29.868 
23:00	54.8	54.8	54.8	49	36.0	0	1	292	0.00	29.871 
23:05	54.8	54.8	54.8	49	36.0	0	1	292	0.00	29.871 
23:10	55.0	55.0	55.0	48	35.7	0	1	292	0.00	29.871 
23:15	54.8	54.8	54.8	48	35.5	0	1	292	0.00	29.867 
23:20	55.0	55.0	55.0	48	35.7	0	1	292	0.00	29.867 
23:25	54.8	54.8	54.8	48	35.5	0	1	292	0.00	29.867 
23:30	54.7	54.7	54.7	48	35.4	0	1	292	0.00	29.867 
23:35	54.5	54.5	54.5	49	35.7	0	1	292	0.00	29.867 
23:40	54.2	54.2	54.2	49	35.5	0	1	292	0.00	29.867 
23:45	54.1	54.1	54.1	50	35.9	0	1	292	0.00	29.872 
23:50	53.8	53.8	53.8	50	35.6	0	1	292	0.00	29.872 
23:55	53.6	53.6	53.6	50	35.4	0	1	292	0.00	29.872 

CoCoRaHS
IN-AL-39
A2 Web Hosting
Creative Commons License
GoDaddy
search engine by freefind advanced

loaded 2018-11-13 23:25:05 • last modified 2010-11-18 10:43:29
Privacy PolicyDisclaimer
• wx.awcolley.com is powered by PmWiki v.2002016 •
• all content (unless otherwise noted) © 2018 A W Colley